Time;durP1;ratioP1;P1;durP2;ratioP2;P2;SDS_P1;SDS_P2;PMS_P1;PMS_P2;Temp;Humidity;BMP_temperature;BMP_pressure;BME280_temperature;BME280_humidity;BME280_pressure;Samples;Min_cycle;Max_cycle;Signal;HPM_P1;HPM_P2
2021/04/10 00:01:48;;;;;;;15.98;8.90;;;;;;;;;;5118153;28;20024;-74
2021/04/10 00:04:16;;;;;;;17.98;8.82;;;;;;;;;;5133850;27;20020;-74
2021/04/10 00:06:43;;;;;;;11.73;7.20;;;;;;;;;;5116752;28;20031;-75
2021/04/10 00:09:08;;;;;;;15.00;7.88;;;;;;;;;;5133539;27;20061;-74
2021/04/10 00:11:37;;;;;;;13.60;7.60;;;;;;;;;;5117918;28;20067;-75
2021/04/10 00:14:06;;;;;;;11.02;7.22;;;;;;;;;;5117566;28;20024;-74
2021/04/10 00:16:33;;;;;;;10.35;7.05;;;;;;;;;;5117958;27;20450;-74
2021/04/10 00:18:58;;;;;;;13.38;7.10;;;;;;;;;;5117640;28;20069;-74
2021/04/10 00:21:24;;;;;;;26.58;11.88;;;;;;;;;;5117730;28;20027;-74
2021/04/10 00:23:55;;;;;;;51.88;19.13;;;;;;;;;;5117642;28;20490;-74
2021/04/10 00:26:30;;;;;;;51.13;19.02;;;;;;;;;;5117815;28;20071;-74
2021/04/10 00:28:55;;;;;;;31.33;14.13;;;;;;;;;;5117665;28;20114;-73
2021/04/10 00:31:20;;;;;;;32.33;14.10;;;;;;;;;;5117172;28;20509;-74
2021/04/10 00:33:46;;;;;;;14.00;8.18;;;;;;;;;;5117262;28;20034;-72
2021/04/10 00:36:11;;;;;;;12.55;7.30;;;;;;;;;;5117350;28;20055;-74
2021/04/10 00:38:38;;;;;;;9.85;6.55;;;;;;;;;;5117104;28;20501;-74
2021/04/10 00:41:07;;;;;;;12.13;6.78;;;;;;;;;;5117282;28;20098;-74
2021/04/10 00:43:32;;;;;;;12.13;6.93;;;;;;;;;;5117034;28;20037;-72
2021/04/10 00:45:58;;;;;;;14.88;9.23;;;;;;;;;;5116932;28;20545;-71
2021/04/10 00:48:23;;;;;;;17.45;11.02;;;;;;;;;;5132498;27;20382;-71
2021/04/10 00:50:50;;;;;;;17.40;10.07;;;;;;;;;;5116872;28;20505;-73
2021/04/10 00:53:16;;;;;;;20.20;10.02;;;;;;;;;;5116495;28;20034;-72
2021/04/10 00:55:44;;;;;;;22.25;11.27;;;;;;;;;;5116895;28;20055;-72
2021/04/10 00:58:11;;;;;;;17.35;10.23;;;;;;;;;;5116666;28;20511;-71
2021/04/10 01:00:36;;;;;;;20.00;9.18;;;;;;;;;;5132352;27;20011;-72
2021/04/10 01:03:02;;;;;;;11.05;6.82;;;;;;;;;;5132539;27;20031;-71
2021/04/10 01:05:28;;;;;;;11.02;6.13;;;;;;;;;;5116633;28;20504;-71
2021/04/10 01:07:53;;;;;;;10.25;6.68;;;;;;;;;;5116422;28;20125;-71
2021/04/10 01:10:20;;;;;;;11.60;6.68;;;;;;;;;;5132319;27;20092;-71
2021/04/10 01:12:52;;;;;;;11.70;7.00;;;;;;;;;;5132285;27;20028;-71
2021/04/10 01:15:22;;;;;;;13.77;7.43;;;;;;;;;;5116482;28;20481;-71
2021/04/10 01:18:04;;;;;;;12.15;7.80;;;;;;;;;;5116700;28;20035;-71
2021/04/10 01:20:30;;;;;;;13.73;8.13;;;;;;;;;;5116459;28;20497;-70
2021/04/10 01:23:32;;;;;;;14.43;7.60;;;;;;;;;;5132340;27;20411;-71
2021/04/10 01:26:00;;;;;;;14.27;7.78;;;;;;;;;;5053353;28;20025;-70
2021/04/10 01:28:26;;;;;;;14.18;7.88;;;;;;;;;;5099860;28;20092;-70
2021/04/10 01:30:52;;;;;;;11.85;7.90;;;;;;;;;;5131886;27;20023;-70
2021/04/10 01:33:20;;;;;;;19.52;9.55;;;;;;;;;;5131798;27;20526;-71
2021/04/10 01:35:52;;;;;;;20.42;10.20;;;;;;;;;;5132126;27;20027;-71
2021/04/10 01:38:19;;;;;;;23.20;12.05;;;;;;;;;;5114751;28;20053;-71
2021/04/10 01:40:48;;;;;;;18.95;11.23;;;;;;;;;;5115943;28;20053;-71
2021/04/10 01:43:16;;;;;;;21.98;12.52;;;;;;;;;;5115704;28;20058;-72
2021/04/10 01:45:42;;;;;;;21.08;12.75;;;;;;;;;;5115992;28;20484;-72
2021/04/10 01:48:14;;;;;;;18.27;10.57;;;;;;;;;;5131905;27;20038;-73
2021/04/10 01:50:56;;;;;;;19.98;10.13;;;;;;;;;;5097698;28;20027;-74
2021/04/10 01:53:41;;;;;;;21.92;10.07;;;;;;;;;;5131801;27;20501;-74
2021/04/10 01:56:08;;;;;;;19.02;9.63;;;;;;;;;;5115284;28;20048;-74
2021/04/10 01:58:42;;;;;;;16.95;9.32;;;;;;;;;;5115733;28;20027;-73
2021/04/10 02:01:12;;;;;;;15.80;9.07;;;;;;;;;;5114442;28;20051;-72
2021/04/10 02:03:45;;;;;;;17.98;9.40;;;;;;;;;;5114213;28;20032;-74
2021/04/10 02:06:12;;;;;;;17.05;8.82;;;;;;;;;;5115232;28;20027;-73
2021/04/10 02:09:01;;;;;;;16.33;9.10;;;;;;;;;;5105974;28;20124;-73
2021/04/10 02:11:41;;;;;;;15.05;8.43;;;;;;;;;;5130778;27;20057;-73
2021/04/10 02:14:15;;;;;;;11.95;7.72;;;;;;;;;;5114009;28;20065;-73
2021/04/10 02:16:47;;;;;;;12.48;7.53;;;;;;;;;;5131255;27;20024;-73
2021/04/10 02:19:16;;;;;;;11.43;7.28;;;;;;;;;;5131071;27;20024;-73
2021/04/10 02:21:44;;;;;;;10.85;7.13;;;;;;;;;;5131056;27;20012;-74
2021/04/10 02:24:12;;;;;;;14.60;7.78;;;;;;;;;;5130945;27;20491;-73
2021/04/10 02:26:42;;;;;;;13.60;7.63;;;;;;;;;;5114938;28;20482;-74
2021/04/10 02:29:13;;;;;;;12.40;7.35;;;;;;;;;;5130893;27;20035;-72
2021/04/10 02:31:44;;;;;;;13.05;7.40;;;;;;;;;;5130647;27;20031;-74
2021/04/10 02:34:12;;;;;;;12.57;8.20;;;;;;;;;;5130625;27;20039;-73
2021/04/10 02:36:39;;;;;;;15.85;8.07;;;;;;;;;;5097226;28;20020;-74
2021/04/10 02:39:07;;;;;;;14.20;8.55;;;;;;;;;;5130967;27;20389;-74
2021/04/10 02:41:34;;;;;;;15.13;8.88;;;;;;;;;;5115050;28;20043;-74
2021/04/10 02:44:02;;;;;;;14.50;8.80;;;;;;;;;;5114670;28;20366;-74
2021/04/10 02:46:29;;;;;;;15.00;8.95;;;;;;;;;;5130645;27;20035;-73
2021/04/10 02:49:09;;;;;;;13.38;8.32;;;;;;;;;;5114596;28;20034;-73
2021/04/10 02:51:39;;;;;;;12.77;7.88;;;;;;;;;;5113533;27;20032;-73
2021/04/10 02:54:06;;;;;;;13.13;7.53;;;;;;;;;;5130206;27;20106;-73
2021/04/10 02:56:32;;;;;;;13.50;8.13;;;;;;;;;;5114966;28;20077;-72
2021/04/10 02:59:02;;;;;;;13.40;8.23;;;;;;;;;;5113574;28;20032;-72
2021/04/10 03:01:31;;;;;;;13.57;8.07;;;;;;;;;;5130551;27;20357;-72
2021/04/10 03:04:01;;;;;;;12.52;8.15;;;;;;;;;;5113676;28;20024;-72
2021/04/10 03:06:29;;;;;;;15.77;7.88;;;;;;;;;;5129932;27;20028;-72
2021/04/10 03:08:55;;;;;;;15.38;8.27;;;;;;;;;;5130337;27;20043;-72
2021/04/10 03:11:24;;;;;;;13.55;7.75;;;;;;;;;;5130249;27;20034;-72
2021/04/10 03:13:50;;;;;;;11.85;7.32;;;;;;;;;;5130350;27;20027;-73
2021/04/10 03:16:29;;;;;;;11.57;6.35;;;;;;;;;;5130075;27;20027;-73
2021/04/10 03:18:57;;;;;;;10.18;6.72;;;;;;;;;;5096358;28;20028;-72
2021/04/10 03:21:28;;;;;;;11.40;6.88;;;;;;;;;;5129987;27;20028;-71
2021/04/10 03:24:01;;;;;;;11.68;6.78;;;;;;;;;;5129310;27;20030;-72
2021/04/10 03:26:29;;;;;;;12.23;7.00;;;;;;;;;;5129949;27;20061;-72
2021/04/10 03:28:57;;;;;;;10.43;6.53;;;;;;;;;;5130002;27;20076;-71
2021/04/10 03:31:23;;;;;;;13.05;6.82;;;;;;;;;;5112856;28;20461;-74
2021/04/10 03:33:50;;;;;;;14.45;6.68;;;;;;;;;;5095837;28;20095;-75
2021/04/10 03:36:16;;;;;;;9.63;6.78;;;;;;;;;;5129236;28;20165;-72
2021/04/10 03:38:42;;;;;;;12.55;7.00;;;;;;;;;;5112747;28;20102;-73
2021/04/10 03:41:09;;;;;;;14.50;7.38;;;;;;;;;;5130193;28;20020;-72
2021/04/10 03:43:36;;;;;;;11.82;6.57;;;;;;;;;;5129840;28;20027;-74
2021/04/10 03:46:02;;;;;;;15.82;7.45;;;;;;;;;;5129623;28;20503;-74
2021/04/10 03:48:28;;;;;;;12.70;7.40;;;;;;;;;;5095599;28;20043;-73
2021/04/10 03:51:01;;;;;;;14.30;7.32;;;;;;;;;;5129571;28;20466;-71
2021/04/10 03:53:32;;;;;;;15.20;7.97;;;;;;;;;;5096188;28;20032;-71
2021/04/10 03:56:03;;;;;;;20.77;8.23;;;;;;;;;;5129725;28;20123;-73
2021/04/10 03:58:33;;;;;;;20.08;8.50;;;;;;;;;;5096156;28;20473;-73
2021/04/10 04:00:58;;;;;;;18.98;8.48;;;;;;;;;;5129760;28;20024;-73
2021/04/10 04:03:24;;;;;;;24.25;9.60;;;;;;;;;;5129680;28;20032;-72
2021/04/10 04:05:49;;;;;;;19.85;8.57;;;;;;;;;;5113623;28;20027;-72
2021/04/10 04:08:15;;;;;;;18.05;10.02;;;;;;;;;;5114032;28;20024;-72
2021/04/10 04:10:40;;;;;;;40.22;24.60;;;;;;;;;;5113694;28;20462;-73
2021/04/10 04:13:09;;;;;;;69.90;39.42;;;;;;;;;;5114021;28;20027;-72
2021/04/10 04:15:35;;;;;;;45.25;24.70;;;;;;;;;;5129259;28;20020;-72
2021/04/10 04:18:02;;;;;;;15.25;8.13;;;;;;;;;;5113931;28;20391;-74
2021/04/10 04:20:29;;;;;;;51.88;29.05;;;;;;;;;;5113418;28;20098;-72
2021/04/10 04:22:56;;;;;;;22.80;12.10;;;;;;;;;;5113613;28;20027;-74
2021/04/10 04:25:21;;;;;;;17.98;9.50;;;;;;;;;;5113605;28;20011;-73
2021/04/10 04:27:48;;;;;;;15.32;7.53;;;;;;;;;;5112394;28;20378;-73
2021/04/10 04:30:13;;;;;;;15.75;8.40;;;;;;;;;;5112761;28;20073;-72
2021/04/10 04:32:39;;;;;;;19.95;10.35;;;;;;;;;;5113134;28;20031;-72
2021/04/10 04:35:06;;;;;;;19.45;9.57;;;;;;;;;;5115091;28;20019;-74
2021/04/10 04:37:34;;;;;;;18.23;9.02;;;;;;;;;;5118883;27;20024;-74
2021/04/10 04:40:00;;;;;;;14.70;9.27;;;;;;;;;;5137461;27;20102;-73
2021/04/10 04:42:25;;;;;;;13.95;7.25;;;;;;;;;;5137655;27;20058;-75
2021/04/10 04:44:51;;;;;;;11.38;7.55;;;;;;;;;;5137545;27;20015;-73
2021/04/10 04:47:16;;;;;;;19.65;9.32;;;;;;;;;;5137746;27;20023;-72
2021/04/10 04:49:42;;;;;;;21.73;9.48;;;;;;;;;;5136029;27;20094;-72
2021/04/10 04:52:08;;;;;;;22.58;10.38;;;;;;;;;;5136024;27;20019;-71
2021/04/10 04:54:33;;;;;;;16.88;9.57;;;;;;;;;;5136854;27;20035;-72
2021/04/10 04:56:59;;;;;;;21.52;10.57;;;;;;;;;;5137384;27;20024;-72
2021/04/10 04:59:25;;;;;;;18.10;10.18;;;;;;;;;;5137543;27;20038;-72
2021/04/10 05:01:51;;;;;;;20.17;10.65;;;;;;;;;;5119097;27;20030;-72
2021/04/10 05:04:17;;;;;;;20.73;11.32;;;;;;;;;;5137183;27;20011;-72
2021/04/10 05:06:42;;;;;;;23.25;13.13;;;;;;;;;;5137107;27;20557;-73
2021/04/10 05:09:08;;;;;;;21.17;12.07;;;;;;;;;;5137117;27;20027;-72
2021/04/10 05:11:34;;;;;;;20.75;11.25;;;;;;;;;;5118792;27;20030;-73
2021/04/10 05:14:00;;;;;;;21.63;11.98;;;;;;;;;;5137209;27;20011;-73
2021/04/10 05:16:26;;;;;;;21.25;11.80;;;;;;;;;;5136836;27;20465;-72
2021/04/10 05:18:53;;;;;;;24.95;14.07;;;;;;;;;;5136908;27;20025;-72
2021/04/10 05:21:18;;;;;;;28.95;18.23;;;;;;;;;;5137035;27;20054;-72
2021/04/10 05:23:44;;;;;;;31.65;20.27;;;;;;;;;;5118117;27;20054;-72
2021/04/10 05:26:09;;;;;;;28.17;18.60;;;;;;;;;;5117583;27;20115;-72
2021/04/10 05:28:35;;;;;;;31.05;18.52;;;;;;;;;;5136433;27;20477;-72
2021/04/10 05:31:01;;;;;;;33.08;18.48;;;;;;;;;;5134083;27;20020;-72
2021/04/10 05:33:30;;;;;;;25.88;17.48;;;;;;;;;;5134888;27;20018;-72
2021/04/10 05:35:56;;;;;;;31.05;17.08;;;;;;;;;;5127308;27;20111;-73
2021/04/10 05:38:21;;;;;;;26.88;17.13;;;;;;;;;;5128828;27;20098;-72
2021/04/10 05:40:47;;;;;;;28.10;16.63;;;;;;;;;;5128225;27;20329;-72
2021/04/10 05:43:12;;;;;;;28.23;17.15;;;;;;;;;;5133885;27;20445;-72
2021/04/10 05:45:38;;;;;;;33.17;18.80;;;;;;;;;;5135364;27;20023;-72
2021/04/10 05:48:03;;;;;;;43.80;22.77;;;;;;;;;;5135913;27;20023;-72
2021/04/10 05:50:29;;;;;;;53.65;26.50;;;;;;;;;;5136123;27;20027;-71
2021/04/10 05:52:55;;;;;;;50.00;24.40;;;;;;;;;;5136045;27;20105;-73
2021/04/10 05:55:21;;;;;;;53.72;25.23;;;;;;;;;;5135157;27;20043;-74
2021/04/10 05:57:48;;;;;;;52.92;24.98;;;;;;;;;;5117193;27;20461;-72
2021/04/10 06:00:14;;;;;;;52.30;25.98;;;;;;;;;;5136058;27;20027;-73
2021/04/10 06:02:40;;;;;;;49.28;25.25;;;;;;;;;;5136189;27;20027;-74
2021/04/10 06:05:06;;;;;;;49.00;24.80;;;;;;;;;;5135668;27;20567;-72
2021/04/10 06:07:32;;;;;;;34.90;18.35;;;;;;;;;;5135544;27;20019;-73
2021/04/10 06:09:57;;;;;;;23.25;12.80;;;;;;;;;;5135496;27;20034;-71
2021/04/10 06:12:23;;;;;;;20.92;12.73;;;;;;;;;;5135350;27;20086;-72
2021/04/10 06:14:49;;;;;;;24.35;12.88;;;;;;;;;;5117167;27;20380;-74
2021/04/10 06:17:15;;;;;;;25.10;13.52;;;;;;;;;;5134768;27;20053;-73
2021/04/10 06:19:40;;;;;;;19.52;11.07;;;;;;;;;;5133066;27;20469;-73
2021/04/10 06:22:06;;;;;;;15.82;9.50;;;;;;;;;;5122997;27;20016;-73
2021/04/10 06:24:31;;;;;;;17.23;7.35;;;;;;;;;;5131324;27;20054;-72
2021/04/10 06:26:57;;;;;;;10.63;6.15;;;;;;;;;;5133264;27;20042;-72
2021/04/10 06:29:22;;;;;;;11.25;6.72;;;;;;;;;;5117221;27;20035;-71
2021/04/10 06:31:48;;;;;;;11.63;6.07;;;;;;;;;;5130475;27;20012;-72
2021/04/10 06:34:13;;;;;;;8.07;5.30;;;;;;;;;;5121430;27;20020;-72
2021/04/10 06:36:39;;;;;;;7.30;4.82;;;;;;;;;;5126806;27;20460;-79
2021/04/10 06:39:14;;;;;;;10.40;5.45;;;;;;;;;;5133839;27;20023;-79
2021/04/10 06:41:42;;;;;;;6.43;4.80;;;;;;;;;;5127294;27;20046;-79
2021/04/10 06:44:08;;;;;;;8.85;5.03;;;;;;;;;;5143232;27;20015;-79
2021/04/10 06:46:41;;;;;;;9.55;5.80;;;;;;;;;;5127494;27;20038;-79
2021/04/10 06:49:21;;;;;;;8.85;5.18;;;;;;;;;;5130065;27;20075;-80
2021/04/10 06:52:01;;;;;;;11.48;6.63;;;;;;;;;;5131306;27;20038;-79
2021/04/10 06:54:30;;;;;;;8.73;5.07;;;;;;;;;;5132828;27;20050;-79
2021/04/10 06:57:16;;;;;;;8.68;5.07;;;;;;;;;;5133627;27;20019;-78
2021/04/10 07:03:03;;;;;;;7.00;4.63;;;;;;;;;;5135149;27;20079;-80
2021/04/10 07:05:29;;;;;;;8.57;5.63;;;;;;;;;;5134907;27;20110;-79
2021/04/10 07:08:01;;;;;;;8.40;4.68;;;;;;;;;;5134912;27;20023;-79
2021/04/10 07:10:34;;;;;;;11.20;5.22;;;;;;;;;;5134678;27;20118;-80
2021/04/10 07:13:06;;;;;;;6.35;4.30;;;;;;;;;;5150702;27;20107;-80
2021/04/10 07:18:43;;;;;;;8.75;5.35;;;;;;;;;;5133228;27;20472;-80
2021/04/10 07:21:42;;;;;;;9.48;5.25;;;;;;;;;;5134579;27;20491;-79
2021/04/10 07:24:34;;;;;;;8.35;5.38;;;;;;;;;;5134339;27;20392;-80
2021/04/10 07:33:22;;;;;;;9.18;4.30;;;;;;;;;;5134418;27;20361;-80
2021/04/10 07:36:06;;;;;;;9.50;4.45;;;;;;;;;;5134825;28;20027;-81
2021/04/10 07:38:34;;;;;;;8.30;4.57;;;;;;;;;;5133227;28;20027;-79
2021/04/10 07:41:03;;;;;;;6.00;4.15;;;;;;;;;;5134406;28;20708;-79
2021/04/10 07:43:31;;;;;;;4.80;3.42;;;;;;;;;;5134431;28;20019;-79
2021/04/10 07:46:31;;;;;;;6.30;3.92;;;;;;;;;;5134616;28;20015;-79
2021/04/10 07:49:12;;;;;;;6.30;4.53;;;;;;;;;;5115922;28;20473;-78
2021/04/10 07:51:55;;;;;;;7.47;4.70;;;;;;;;;;5134437;28;20031;-76
2021/04/10 07:54:23;;;;;;;5.50;4.13;;;;;;;;;;5132286;28;20058;-75
2021/04/10 07:57:01;;;;;;;6.63;3.90;;;;;;;;;;5134844;28;20038;-77
2021/04/10 07:59:45;;;;;;;6.20;4.20;;;;;;;;;;5134271;28;20023;-77
2021/04/10 08:02:14;;;;;;;7.40;4.03;;;;;;;;;;5134064;28;20109;-77
2021/04/10 08:04:53;;;;;;;5.15;3.03;;;;;;;;;;5134045;28;20026;-79
2021/04/10 08:07:29;;;;;;;5.80;4.22;;;;;;;;;;5116032;28;20376;-74
2021/04/10 08:09:57;;;;;;;6.00;3.78;;;;;;;;;;5135703;27;20114;-73
2021/04/10 08:12:33;;;;;;;6.57;4.43;;;;;;;;;;5138109;27;20019;-73
2021/04/10 08:15:00;;;;;;;5.63;4.38;;;;;;;;;;5136987;27;20034;-73
2021/04/10 08:17:33;;;;;;;7.32;3.80;;;;;;;;;;5136975;27;20049;-74
2021/04/10 08:20:18;;;;;;;6.13;3.47;;;;;;;;;;5138054;27;20034;-73
2021/04/10 08:22:43;;;;;;;8.45;4.32;;;;;;;;;;5138136;27;20035;-74
2021/04/10 08:25:10;;;;;;;1.27;1.17;;;;;;;;;;5153812;27;20029;-74
2021/04/10 08:27:36;;;;;;;6.88;3.90;;;;;;;;;;5137876;27;20055;-73
2021/04/10 08:30:01;;;;;;;5.60;4.10;;;;;;;;;;5119408;27;20046;-71
2021/04/10 08:32:27;;;;;;;2.95;1.42;;;;;;;;;;5137746;27;20031;-71
2021/04/10 08:34:53;;;;;;;7.93;4.50;;;;;;;;;;5137722;27;20008;-71
2021/04/10 08:37:19;;;;;;;5.47;3.92;;;;;;;;;;5137399;27;20031;-70
2021/04/10 08:39:46;;;;;;;6.43;3.92;;;;;;;;;;5137333;27;20338;-70
2021/04/10 08:42:12;;;;;;;6.38;4.20;;;;;;;;;;5137502;27;20027;-70
2021/04/10 08:44:39;;;;;;;4.95;3.63;;;;;;;;;;5137596;27;20019;-70
2021/04/10 08:47:05;;;;;;;3.25;2.15;;;;;;;;;;5119085;27;20038;-70
2021/04/10 08:49:33;;;;;;;7.28;4.20;;;;;;;;;;5137413;27;20019;-70
2021/04/10 08:52:05;;;;;;;4.75;3.63;;;;;;;;;;5137686;27;20019;-70
2021/04/10 08:54:37;;;;;;;6.85;3.90;;;;;;;;;;5136986;27;20036;-71
2021/04/10 08:57:09;;;;;;;5.10;4.50;;;;;;;;;;5137679;27;20027;-73
2021/04/10 08:59:39;;;;;;;9.93;3.28;;;;;;;;;;5137299;27;20032;-72
2021/04/10 09:02:11;;;;;;;5.15;3.40;;;;;;;;;;5136297;27;20472;-72
2021/04/10 09:04:55;;;;;;;3.08;2.10;;;;;;;;;;5118587;27;20023;-72
2021/04/10 09:07:40;;;;;;;2.28;1.67;;;;;;;;;;5137384;27;20019;-72
2021/04/10 09:10:06;;;;;;;6.05;3.97;;;;;;;;;;5118603;27;20466;-71
2021/04/10 09:12:32;;;;;;;7.90;3.60;;;;;;;;;;5136765;27;20023;-71
2021/04/10 09:15:05;;;;;;;6.07;2.90;;;;;;;;;;5136858;27;20480;-71
2021/04/10 09:17:49;;;;;;;5.78;3.67;;;;;;;;;;5137070;27;20084;-71
2021/04/10 09:20:14;;;;;;;6.65;3.75;;;;;;;;;;5136598;27;20024;-71
2021/04/10 09:22:40;;;;;;;4.75;3.63;;;;;;;;;;5137119;27;20019;-72
2021/04/10 09:25:05;;;;;;;6.88;3.38;;;;;;;;;;5136178;27;20022;-72
2021/04/10 09:27:31;;;;;;;3.65;2.63;;;;;;;;;;5137115;27;20014;-72
2021/04/10 09:30:04;;;;;;;5.53;3.15;;;;;;;;;;5136849;27;20056;-72
2021/04/10 09:32:29;;;;;;;1.65;1.55;;;;;;;;;;5136888;27;20356;-71
2021/04/10 09:34:56;;;;;;;1.27;1.17;;;;;;;;;;5118588;27;20019;-71
2021/04/10 09:37:23;;;;;;;3.85;2.47;;;;;;;;;;5136700;27;20027;-71
2021/04/10 09:39:57;;;;;;;1.52;1.30;;;;;;;;;;5136537;27;20015;-73
2021/04/10 09:45:18;;;;;;;3.13;2.67;;;;;;;;;;5136369;27;20023;-73
2021/04/10 09:50:21;;;;;;;3.42;2.33;;;;;;;;;;5136377;27;20022;-72
2021/04/10 09:52:54;;;;;;;4.18;2.58;;;;;;;;;;5136645;27;20019;-72
2021/04/10 09:55:21;;;;;;;2.97;2.38;;;;;;;;;;5135977;27;20556;-72
2021/04/10 09:57:59;;;;;;;4.35;2.35;;;;;;;;;;5135008;27;20023;-69
2021/04/10 10:00:28;;;;;;;2.47;1.35;;;;;;;;;;5135744;27;20489;-69
2021/04/10 10:02:55;;;;;;;4.55;1.92;;;;;;;;;;5134971;27;20023;-69
2021/04/10 10:05:21;;;;;;;7.60;2.50;;;;;;;;;;5135823;27;20491;-69
2021/04/10 10:07:47;;;;;;;6.43;2.65;;;;;;;;;;5135570;27;20023;-70
2021/04/10 10:10:13;;;;;;;4.43;1.42;;;;;;;;;;5135848;27;20035;-69
2021/04/10 10:12:38;;;;;;;4.38;2.60;;;;;;;;;;5135528;27;20102;-69
2021/04/10 10:15:18;;;;;;;1.08;1.08;;;;;;;;;;5134375;27;20027;-70
2021/04/10 10:17:44;;;;;;;14.37;3.30;;;;;;;;;;5134139;27;20031;-71
2021/04/10 10:20:13;;;;;;;17.58;3.50;;;;;;;;;;5135552;27;20488;-70
2021/04/10 10:22:40;;;;;;;7.70;2.10;;;;;;;;;;5151728;27;20067;-70
2021/04/10 10:25:06;;;;;;;7.13;2.53;;;;;;;;;;5134562;27;20260;-70
2021/04/10 10:27:33;;;;;;;4.00;2.10;;;;;;;;;;5135561;27;20023;-70
2021/04/10 10:29:58;;;;;;;5.47;1.88;;;;;;;;;;5135628;27;20015;-70
2021/04/10 10:32:23;;;;;;;4.22;1.90;;;;;;;;;;5135048;27;20387;-70
2021/04/10 10:34:50;;;;;;;14.00;2.47;;;;;;;;;;5151597;27;20350;-70
2021/04/10 10:37:23;;;;;;;5.70;1.60;;;;;;;;;;5135324;27;20019;-70
2021/04/10 10:39:49;;;;;;;2.72;1.35;;;;;;;;;;5134183;27;20122;-71
2021/04/10 10:42:22;;;;;;;3.97;1.95;;;;;;;;;;5133860;27;20053;-70
2021/04/10 10:44:47;;;;;;;5.22;1.98;;;;;;;;;;5135116;27;20076;-71
2021/04/10 10:47:13;;;;;;;6.25;2.38;;;;;;;;;;5133926;27;20019;-70
2021/04/10 10:49:38;;;;;;;1.27;1.17;;;;;;;;;;5135201;27;20062;-71
2021/04/10 10:52:04;;;;;;;4.32;2.00;;;;;;;;;;5151346;27;20011;-72
2021/04/10 10:54:31;;;;;;;5.65;1.02;;;;;;;;;;5130029;27;20037;-73
2021/04/10 10:56:56;;;;;;;2.15;0.80;;;;;;;;;;5114582;28;20024;-71
2021/04/10 10:59:26;;;;;;;1.95;1.60;;;;;;;;;;5114157;28;20087;-72
2021/04/10 11:01:51;;;;;;;2.38;0.93;;;;;;;;;;5114548;28;20019;-72
2021/04/10 11:04:18;;;;;;;1.55;1.23;;;;;;;;;;5112801;28;20418;-72
2021/04/10 11:06:43;;;;;;;1.40;0.93;;;;;;;;;;5114204;28;20055;-72
2021/04/10 11:09:10;;;;;;;3.72;2.03;;;;;;;;;;5114023;28;20103;-72
2021/04/10 11:11:36;;;;;;;4.10;2.83;;;;;;;;;;5114228;28;20039;-72
2021/04/10 11:14:02;;;;;;;2.17;1.73;;;;;;;;;;5130228;27;20023;-72
2021/04/10 11:16:27;;;;;;;5.80;2.35;;;;;;;;;;5129958;27;20050;-72
2021/04/10 11:18:57;;;;;;;2.58;2.05;;;;;;;;;;5113555;28;20011;-72
2021/04/10 11:21:31;;;;;;;2.00;1.73;;;;;;;;;;5113057;28;20104;-72
2021/04/10 11:23:59;;;;;;;1.58;1.48;;;;;;;;;;5114078;28;20038;-72
2021/04/10 11:26:34;;;;;;;1.63;0.93;;;;;;;;;;5114262;28;20043;-72
2021/04/10 11:29:12;;;;;;;5.20;1.52;;;;;;;;;;5114343;28;20032;-72
2021/04/10 11:31:37;;;;;;;2.63;1.40;;;;;;;;;;5130127;27;20032;-72
2021/04/10 11:34:23;;;;;;;5.57;2.28;;;;;;;;;;5113819;28;20088;-71
2021/04/10 11:36:52;;;;;;;2.17;1.73;;;;;;;;;;5114151;28;20111;-71
2021/04/10 11:39:17;;;;;;;2.28;1.77;;;;;;;;;;5130314;28;20051;-71
2021/04/10 11:41:47;;;;;;;2.85;2.03;;;;;;;;;;5129895;28;20054;-71
2021/04/10 11:44:13;;;;;;;2.38;1.35;;;;;;;;;;5114247;28;20123;-71
2021/04/10 11:46:38;;;;;;;3.08;1.98;;;;;;;;;;5117658;28;20421;-72
2021/04/10 11:49:04;;;;;;;0.85;0.85;;;;;;;;;;5118085;28;20059;-71
2021/04/10 11:51:29;;;;;;;3.00;1.70;;;;;;;;;;5117723;28;20057;-71
2021/04/10 11:53:55;;;;;;;2.97;1.98;;;;;;;;;;5133894;27;20042;-71
2021/04/10 11:56:28;;;;;;;2.55;1.50;;;;;;;;;;5137781;27;20073;-71
2021/04/10 11:59:03;;;;;;;4.20;2.10;;;;;;;;;;5120083;27;20023;-71
2021/04/10 12:01:29;;;;;;;3.10;2.10;;;;;;;;;;5137361;27;20023;-71
2021/04/10 12:03:55;;;;;;;8.48;4.65;;;;;;;;;;5154445;27;20023;-71
2021/04/10 12:06:28;;;;;;;4.90;3.17;;;;;;;;;;5137768;27;20027;-70
2021/04/10 12:08:54;;;;;;;4.50;2.72;;;;;;;;;;5137035;27;20377;-70
2021/04/10 12:11:22;;;;;;;3.47;2.88;;;;;;;;;;5138225;27;20019;-70
2021/04/10 12:13:48;;;;;;;2.80;1.75;;;;;;;;;;5137128;27;20031;-70
2021/04/10 12:16:13;;;;;;;3.67;1.50;;;;;;;;;;5138315;27;20463;-70
2021/04/10 12:18:39;;;;;;;3.00;2.30;;;;;;;;;;5138107;27;20072;-70
2021/04/10 12:21:04;;;;;;;10.63;4.60;;;;;;;;;;5138093;27;20016;-70
2021/04/10 12:23:30;;;;;;;2.60;2.15;;;;;;;;;;5137936;27;20031;-70
2021/04/10 12:25:55;;;;;;;5.30;3.78;;;;;;;;;;5138025;27;20054;-70
2021/04/10 12:28:22;;;;;;;6.05;2.97;;;;;;;;;;5136540;27;20023;-70
2021/04/10 12:30:48;;;;;;;3.85;2.88;;;;;;;;;;5119244;27;20015;-70
2021/04/10 12:33:13;;;;;;;3.95;2.72;;;;;;;;;;5137448;27;20076;-71
2021/04/10 12:35:39;;;;;;;6.25;4.03;;;;;;;;;;5137773;27;20022;-71
2021/04/10 12:38:04;;;;;;;4.75;3.47;;;;;;;;;;5137981;27;20048;-70
2021/04/10 12:40:30;;;;;;;6.78;4.07;;;;;;;;;;5137795;27;20019;-70
2021/04/10 12:42:56;;;;;;;7.18;4.85;;;;;;;;;;5119220;27;20483;-71
2021/04/10 12:45:21;;;;;;;7.22;4.70;;;;;;;;;;5137687;27;20115;-71
2021/04/10 12:47:47;;;;;;;6.00;4.47;;;;;;;;;;5137820;27;20058;-70
2021/04/10 12:50:17;;;;;;;7.72;4.72;;;;;;;;;;5136546;27;20015;-70
2021/04/10 12:52:43;;;;;;;8.10;3.73;;;;;;;;;;5137417;27;20099;-70
2021/04/10 12:55:09;;;;;;;3.72;3.28;;;;;;;;;;5136839;27;20047;-72
2021/04/10 12:57:34;;;;;;;3.80;3.50;;;;;;;;;;5135946;27;20496;-71
2021/04/10 13:00:00;;;;;;;3.42;2.53;;;;;;;;;;5136931;27;20480;-71
2021/04/10 13:02:25;;;;;;;4.57;3.65;;;;;;;;;;5137264;27;20031;-71
2021/04/10 13:04:51;;;;;;;10.70;8.00;;;;;;;;;;5135690;27;20027;-71
2021/04/10 13:07:16;;;;;;;5.30;4.00;;;;;;;;;;5137145;27;20407;-71
2021/04/10 13:09:44;;;;;;;6.80;4.15;;;;;;;;;;5137016;27;20022;-71
2021/04/10 13:12:14;;;;;;;5.57;4.13;;;;;;;;;;5136938;27;20412;-71
2021/04/10 13:14:41;;;;;;;6.63;3.58;;;;;;;;;;5135814;27;20656;-73
2021/04/10 13:17:07;;;;;;;3.40;3.08;;;;;;;;;;5136714;27;20019;-72
2021/04/10 13:19:32;;;;;;;4.88;3.60;;;;;;;;;;5136627;27;20023;-72
2021/04/10 13:21:58;;;;;;;5.50;4.00;;;;;;;;;;5136638;27;20019;-71
2021/04/10 13:24:23;;;;;;;4.15;3.75;;;;;;;;;;5136669;27;20042;-71
2021/04/10 13:26:51;;;;;;;6.03;3.28;;;;;;;;;;5136843;27;20019;-72
2021/04/10 13:29:17;;;;;;;6.18;3.50;;;;;;;;;;5136833;27;20039;-71
2021/04/10 13:31:44;;;;;;;4.82;3.67;;;;;;;;;;5136666;27;20069;-71
2021/04/10 13:34:11;;;;;;;5.22;3.35;;;;;;;;;;5136584;27;20027;-71
2021/04/10 13:36:37;;;;;;;6.35;4.05;;;;;;;;;;5136687;27;20476;-71
2021/04/10 13:39:02;;;;;;;10.35;6.00;;;;;;;;;;5136461;27;20066;-71
2021/04/10 13:41:28;;;;;;;4.82;3.58;;;;;;;;;;5134892;27;20015;-71
2021/04/10 13:43:54;;;;;;;9.60;4.65;;;;;;;;;;5136599;27;20115;-71
2021/04/10 13:46:19;;;;;;;4.90;3.42;;;;;;;;;;5136375;27;20016;-71
2021/04/10 13:48:45;;;;;;;3.95;3.38;;;;;;;;;;5134769;27;20023;-71
2021/04/10 13:51:10;;;;;;;5.55;3.10;;;;;;;;;;5136275;27;20069;-71
2021/04/10 13:53:36;;;;;;;3.22;2.90;;;;;;;;;;5151964;27;20035;-72
2021/04/10 13:56:01;;;;;;;2.95;2.55;;;;;;;;;;5135947;27;20055;-72
2021/04/10 13:58:27;;;;;;;2.50;2.03;;;;;;;;;;5135897;27;20536;-72
2021/04/10 14:00:52;;;;;;;3.33;2.47;;;;;;;;;;5117306;27;20093;-72
2021/04/10 14:03:18;;;;;;;6.30;2.90;;;;;;;;;;5135836;27;20027;-72
2021/04/10 14:05:43;;;;;;;3.47;2.83;;;;;;;;;;5151964;27;20164;-71
2021/04/10 14:08:09;;;;;;;3.70;2.38;;;;;;;;;;5134738;27;20043;-71
2021/04/10 14:10:35;;;;;;;4.18;3.33;;;;;;;;;;5135639;27;20023;-71
2021/04/10 14:13:04;;;;;;;5.45;2.72;;;;;;;;;;5151345;27;20035;-71
2021/04/10 14:15:35;;;;;;;4.55;2.95;;;;;;;;;;5135600;27;20015;-71
2021/04/10 14:18:00;;;;;;;;;;;;;;;;;;5135949;27;20114;-71
2021/04/10 14:20:30;;;;;;;3.30;2.28;;;;;;;;;;5135532;27;19950;-70
2021/04/10 14:22:57;;;;;;;6.80;3.13;;;;;;;;;;5134421;27;20038;-71
2021/04/10 14:25:26;;;;;;;3.97;2.83;;;;;;;;;;5134899;27;20030;-71
2021/04/10 14:27:52;;;;;;;2.90;2.70;;;;;;;;;;5132395;27;20033;-71
2021/04/10 14:30:20;;;;;;;3.10;1.92;;;;;;;;;;5135245;27;20011;-71
2021/04/10 14:32:46;;;;;;;2.58;2.17;;;;;;;;;;5117252;27;20122;-71
2021/04/10 14:35:24;;;;;;;5.80;2.60;;;;;;;;;;5122623;27;20094;-71
2021/04/10 14:37:51;;;;;;;3.83;2.50;;;;;;;;;;5122717;27;20023;-71
2021/04/10 14:40:17;;;;;;;3.22;2.50;;;;;;;;;;5132070;27;20026;-71
2021/04/10 14:42:43;;;;;;;3.58;2.53;;;;;;;;;;5116815;27;20019;-70
2021/04/10 14:45:09;;;;;;;3.53;2.30;;;;;;;;;;5116738;27;20011;-71
2021/04/10 14:47:35;;;;;;;3.55;2.70;;;;;;;;;;5135229;27;20027;-71
2021/04/10 14:50:01;;;;;;;3.20;2.55;;;;;;;;;;5135101;27;20023;-71
2021/04/10 14:52:26;;;;;;;2.80;2.20;;;;;;;;;;5135104;27;20058;-57
2021/04/10 14:54:52;;;;;;;4.55;2.90;;;;;;;;;;5132750;27;20126;-70
2021/04/10 14:57:17;;;;;;;3.90;2.15;;;;;;;;;;5114561;28;20031;-68
2021/04/10 14:59:43;;;;;;;6.90;3.25;;;;;;;;;;5114633;28;20485;-72
2021/04/10 15:02:09;;;;;;;4.28;2.60;;;;;;;;;;5113386;28;20048;-72